Time;durP1;ratioP1;P1;durP2;ratioP2;P2;SDS_P1;SDS_P2;PMS_P1;PMS_P2;Temp;Humidity;BMP_temperature;BMP_pressure;BME280_temperature;BME280_humidity;BME280_pressure;Samples;Min_cycle;Max_cycle;Signal;HPM_P1;HPM_P2
2023/03/23 00:01:19;;;;;;;0.40;0.40;;;14.90;99.90;;;;;;5017248;28;20050;-67
2023/03/23 00:03:46;;;;;;;2.63;0.63;;;14.80;99.90;;;;;;5017579;28;20025;-67
2023/03/23 00:06:16;;;;;;;4.78;0.60;;;14.90;99.90;;;;;;5017580;28;20026;-67
2023/03/23 00:08:47;;;;;;;1.20;0.60;;;14.90;99.90;;;;;;5018654;28;20049;-67
2023/03/23 00:11:20;;;;;;;1.63;0.60;;;14.90;99.90;;;;;;5018234;28;20029;-67
2023/03/23 00:13:53;;;;;;;1.58;0.77;;;15.00;99.90;;;;;;5017005;28;20021;-67
2023/03/23 00:16:28;;;;;;;5.60;0.68;;;14.80;99.90;;;;;;5018004;28;20029;-67
2023/03/23 00:18:54;;;;;;;1.80;0.60;;;14.80;99.90;;;;;;5017094;28;20021;-67
2023/03/23 00:21:25;;;;;;;3.30;0.70;;;14.80;99.90;;;;;;5018081;28;20091;-67
2023/03/23 00:23:51;;;;;;;1.08;0.60;;;14.80;99.90;;;;;;5014899;22;20042;-69
2023/03/23 00:26:17;;;;;;;3.13;0.70;;;14.70;99.90;;;;;;4977684;28;20027;-69
2023/03/23 00:28:46;;;;;;;2.25;0.75;;;14.70;99.90;;;;;;4977866;28;20034;-69
2023/03/23 00:31:12;;;;;;;2.13;0.65;;;14.70;99.90;;;;;;4978669;28;20022;-69
2023/03/23 00:33:40;;;;;;;0.90;0.68;;;14.60;99.90;;;;;;4977757;28;20027;-69
2023/03/23 00:36:08;;;;;;;2.30;0.60;;;14.50;99.90;;;;;;4978546;28;20045;-69
2023/03/23 00:38:34;;;;;;;2.72;0.60;;;14.60;99.90;;;;;;4977881;28;20022;-68
2023/03/23 00:41:02;;;;;;;2.97;0.70;;;14.70;99.90;;;;;;4977709;28;20109;-69
2023/03/23 00:43:28;;;;;;;2.97;0.90;;;14.70;99.90;;;;;;4977868;28;20030;-69
2023/03/23 00:45:55;;;;;;;3.50;1.08;;;14.60;99.90;;;;;;4977768;28;20054;-69
2023/03/23 00:48:24;;;;;;;3.08;0.80;;;14.40;99.90;;;;;;4977646;28;20113;-69
2023/03/23 00:50:52;;;;;;;2.28;0.90;;;14.30;99.90;;;;;;4977373;28;20019;-69
2023/03/23 00:53:18;;;;;;;3.67;0.82;;;14.30;99.90;;;;;;4977640;28;20053;-69
2023/03/23 00:55:45;;;;;;;2.47;0.77;;;14.20;99.90;;;;;;4978246;28;20023;-69
2023/03/23 00:58:12;;;;;;;1.30;0.52;;;14.30;99.90;;;;;;4978492;28;20027;-69
2023/03/23 01:00:38;;;;;;;1.20;0.90;;;14.20;99.90;;;;;;4978259;28;20049;-69
2023/03/23 01:03:04;;;;;;;1.58;0.65;;;14.20;99.90;;;;;;4977229;28;20027;-68
2023/03/23 01:05:37;;;;;;;1.83;0.88;;;14.10;99.90;;;;;;4977782;28;20030;-69
2023/03/23 01:08:04;;;;;;;0.88;0.65;;;13.90;99.90;;;;;;4977867;28;20031;-69
2023/03/23 01:10:32;;;;;;;2.05;1.00;;;13.80;99.90;;;;;;4977114;28;20031;-68
2023/03/23 01:13:02;;;;;;;2.15;0.68;;;13.70;99.90;;;;;;4977198;28;20030;-69
2023/03/23 01:15:29;;;;;;;1.20;0.68;;;13.70;99.90;;;;;;4977588;28;20030;-69
2023/03/23 01:17:55;;;;;;;2.13;0.80;;;13.60;99.90;;;;;;4977759;28;20026;-69
2023/03/23 01:20:21;;;;;;;1.27;0.70;;;13.50;99.90;;;;;;4977414;28;20027;-69
2023/03/23 01:22:47;;;;;;;1.48;1.20;;;13.50;99.90;;;;;;4977148;28;20041;-68
2023/03/23 01:25:14;;;;;;;0.55;0.55;;;13.40;99.90;;;;;;4977104;28;20042;-68
2023/03/23 01:27:40;;;;;;;1.13;0.75;;;13.30;99.90;;;;;;4977099;28;20027;-68
2023/03/23 01:30:08;;;;;;;3.55;1.15;;;13.30;99.90;;;;;;4977687;28;20030;-68
2023/03/23 01:32:34;;;;;;;3.47;1.40;;;13.30;99.90;;;;;;4977963;28;20027;-68
2023/03/23 01:35:00;;;;;;;3.38;0.95;;;13.20;99.90;;;;;;4978050;28;20030;-68
2023/03/23 01:37:26;;;;;;;2.90;1.15;;;13.20;99.90;;;;;;4977869;28;20109;-68
2023/03/23 01:39:56;;;;;;;3.75;1.20;;;13.20;99.90;;;;;;4978007;28;20034;-68
2023/03/23 01:42:30;;;;;;;4.45;1.10;;;13.20;99.90;;;;;;4977266;28;20027;-67
2023/03/23 01:45:27;;;;;;;1.25;0.85;;;13.20;99.90;;;;;;4978798;28;20030;-68
2023/03/23 01:47:59;;;;;;;4.97;1.33;;;13.10;99.90;;;;;;4981513;28;20050;-67
2023/03/23 01:50:26;;;;;;;6.60;1.20;;;13.20;99.90;;;;;;4981032;28;20141;-68
2023/03/23 01:52:54;;;;;;;1.75;0.70;;;13.20;99.90;;;;;;4981315;28;20031;-68
2023/03/23 01:55:21;;;;;;;2.53;0.90;;;13.30;99.90;;;;;;4980605;28;20034;-68
2023/03/23 01:57:48;;;;;;;1.55;1.10;;;13.30;99.90;;;;;;4980528;28;20033;-68
2023/03/23 02:00:15;;;;;;;2.25;0.85;;;13.20;99.90;;;;;;4981353;28;20033;-68
2023/03/23 02:02:44;;;;;;;1.35;0.90;;;13.30;99.90;;;;;;4981305;28;20038;-68
2023/03/23 02:05:29;;;;;;;1.55;0.90;;;13.30;99.90;;;;;;4981390;28;20030;-68
2023/03/23 02:08:02;;;;;;;2.78;0.57;;;13.20;99.90;;;;;;4980445;28;20031;-68
2023/03/23 02:10:30;;;;;;;3.42;1.10;;;13.10;99.90;;;;;;4980307;28;20031;-68
2023/03/23 02:12:56;;;;;;;3.33;1.08;;;12.90;99.90;;;;;;4980211;28;20023;-68
2023/03/23 02:15:25;;;;;;;2.63;1.00;;;12.90;99.90;;;;;;4980172;28;20031;-68
2023/03/23 02:18:01;;;;;;;1.15;0.70;;;13.00;99.90;;;;;;4981144;28;20023;-68
2023/03/23 02:20:52;;;;;;;1.10;0.70;;;13.00;99.90;;;;;;4980167;28;20026;-68
2023/03/23 02:23:24;;;;;;;2.58;0.75;;;12.80;99.90;;;;;;4980995;28;20039;-68
2023/03/23 02:26:08;;;;;;;2.63;0.70;;;12.90;99.90;;;;;;4981325;28;20030;-68
2023/03/23 02:28:55;;;;;;;4.90;0.73;;;12.80;99.90;;;;;;4980090;28;20118;-68
2023/03/23 02:31:42;;;;;;;2.92;0.80;;;12.70;99.90;;;;;;4981087;28;20038;-68
2023/03/23 02:34:43;;;;;;;2.58;0.73;;;12.90;99.90;;;;;;4980092;28;20038;-69
2023/03/23 02:37:13;;;;;;;4.03;0.93;;;13.00;99.90;;;;;;4963689;28;20039;-69
2023/03/23 02:40:11;;;;;;;1.45;0.80;;;13.00;99.90;;;;;;4979790;28;20026;-68
2023/03/23 02:42:41;;;;;;;3.17;1.02;;;13.00;99.90;;;;;;4979800;28;20058;-68
2023/03/23 02:45:09;;;;;;;3.70;1.00;;;13.10;99.90;;;;;;4979748;28;20033;-68
2023/03/23 02:47:38;;;;;;;1.92;0.70;;;13.20;99.90;;;;;;4979652;28;20090;-68
2023/03/23 02:50:07;;;;;;;3.00;0.90;;;13.10;99.90;;;;;;4979898;28;20033;-68
2023/03/23 02:52:34;;;;;;;1.02;0.73;;;13.00;99.90;;;;;;4963874;28;20038;-68
2023/03/23 02:55:01;;;;;;;1.33;0.98;;;13.10;99.90;;;;;;4980365;28;20030;-68
2023/03/23 02:57:27;;;;;;;2.40;0.90;;;13.00;99.90;;;;;;4980333;28;20082;-68
2023/03/23 02:59:54;;;;;;;0.93;0.77;;;13.00;99.90;;;;;;4979756;28;20031;-68
2023/03/23 03:02:26;;;;;;;2.20;0.80;;;12.90;99.90;;;;;;4979666;28;20027;-68
2023/03/23 03:05:05;;;;;;;1.48;0.95;;;13.00;99.90;;;;;;4979206;28;20023;-68
2023/03/23 03:08:01;;;;;;;1.67;0.88;;;13.00;99.90;;;;;;4980437;28;20023;-68
2023/03/23 03:10:53;;;;;;;3.63;1.42;;;12.90;99.90;;;;;;4980026;28;20106;-68
2023/03/23 03:13:47;;;;;;;2.10;1.02;;;12.90;99.90;;;;;;4979076;28;20026;-68
2023/03/23 03:16:36;;;;;;;2.17;1.08;;;12.80;99.90;;;;;;4979082;28;20027;-68
2023/03/23 03:19:11;;;;;;;2.03;0.98;;;12.70;99.90;;;;;;4979905;28;20054;-68
2023/03/23 03:21:41;;;;;;;2.55;0.93;;;12.80;99.90;;;;;;4979009;28;20019;-68
2023/03/23 03:24:11;;;;;;;1.75;0.70;;;12.70;99.90;;;;;;4979241;28;20059;-68
2023/03/23 03:26:40;;;;;;;2.58;1.10;;;12.60;99.90;;;;;;4979122;28;20019;-68
2023/03/23 03:29:07;;;;;;;1.92;0.98;;;12.50;99.90;;;;;;4978823;28;20023;-68
2023/03/23 03:31:37;;;;;;;1.27;0.80;;;12.50;99.90;;;;;;4979490;28;20054;-68
2023/03/23 03:34:03;;;;;;;1.10;0.63;;;12.60;99.90;;;;;;4978723;28;20181;-68
2023/03/23 03:36:34;;;;;;;3.33;0.93;;;12.60;99.90;;;;;;4979291;28;20069;-68
2023/03/23 03:39:04;;;;;;;1.60;0.88;;;12.60;99.90;;;;;;4978975;28;20118;-68
2023/03/23 03:41:30;;;;;;;0.68;0.63;;;12.70;99.90;;;;;;4979783;28;20101;-68
2023/03/23 03:43:56;;;;;;;1.50;0.75;;;12.70;99.90;;;;;;4979523;28;20097;-68
2023/03/23 03:46:21;;;;;;;3.83;1.10;;;12.60;99.90;;;;;;4978357;28;20066;-68
2023/03/23 03:48:47;;;;;;;3.13;0.73;;;12.60;99.90;;;;;;4979486;28;20023;-68
2023/03/23 03:51:12;;;;;;;3.63;0.80;;;12.50;99.90;;;;;;4979266;28;20031;-68
2023/03/23 03:53:38;;;;;;;0.95;0.60;;;12.40;99.90;;;;;;4979193;28;20058;-68
2023/03/23 03:56:05;;;;;;;1.05;0.68;;;12.40;99.90;;;;;;4978733;28;20023;-68
2023/03/23 03:58:32;;;;;;;1.08;0.63;;;12.30;99.90;;;;;;4979425;28;20022;-68
2023/03/23 04:00:59;;;;;;;1.60;0.82;;;12.40;99.90;;;;;;4979449;28;20022;-68
2023/03/23 04:03:25;;;;;;;0.80;0.70;;;12.30;99.90;;;;;;4978979;28;20114;-68
2023/03/23 04:05:51;;;;;;;2.55;0.90;;;12.30;99.90;;;;;;4979047;28;20030;-68
2023/03/23 04:08:17;;;;;;;1.08;0.80;;;12.30;99.90;;;;;;4978082;28;20027;-68
2023/03/23 04:10:43;;;;;;;1.55;1.02;;;12.30;99.90;;;;;;4978936;28;20030;-68
2023/03/23 04:13:08;;;;;;;1.00;0.85;;;12.40;99.90;;;;;;4978983;28;20033;-68
2023/03/23 04:15:34;;;;;;;0.82;0.70;;;12.40;99.90;;;;;;4978355;28;20047;-68
2023/03/23 04:17:59;;;;;;;3.45;0.80;;;12.40;99.90;;;;;;4978050;28;20023;-68
2023/03/23 04:20:26;;;;;;;1.15;0.80;;;12.40;99.90;;;;;;4978273;28;20022;-68
2023/03/23 04:22:54;;;;;;;4.07;1.20;;;12.40;99.90;;;;;;4978853;28;20031;-68
2023/03/23 04:25:20;;;;;;;1.00;0.70;;;12.40;99.90;;;;;;4979188;28;20027;-68
2023/03/23 04:27:52;;;;;;;1.30;0.90;;;12.40;99.90;;;;;;4977776;28;20034;-68
2023/03/23 04:30:19;;;;;;;4.70;1.10;;;12.40;99.90;;;;;;4978955;28;20026;-68
2023/03/23 04:32:45;;;;;;;3.00;0.70;;;12.50;99.90;;;;;;4977845;28;20126;-68
2023/03/23 04:35:13;;;;;;;4.25;0.70;;;12.30;99.90;;;;;;4978610;28;20027;-68
2023/03/23 04:37:40;;;;;;;2.60;1.00;;;12.30;99.90;;;;;;4978647;28;20038;-68
2023/03/23 04:40:10;;;;;;;1.20;0.90;;;12.30;99.90;;;;;;4978610;28;20019;-68
2023/03/23 04:42:37;;;;;;;1.90;0.70;;;12.30;99.90;;;;;;4978706;28;20081;-68
2023/03/23 04:45:05;;;;;;;2.65;1.00;;;12.20;99.90;;;;;;4978753;28;20053;-68
2023/03/23 04:47:34;;;;;;;4.50;0.85;;;12.20;99.90;;;;;;4978617;28;20029;-68
2023/03/23 04:50:01;;;;;;;6.20;1.25;;;12.20;99.90;;;;;;4977535;28;20030;-68
2023/03/23 04:52:28;;;;;;;2.58;1.05;;;12.00;99.90;;;;;;4977625;28;20027;-68
2023/03/23 04:54:55;;;;;;;3.03;1.10;;;12.00;99.90;;;;;;4977525;28;20155;-68
2023/03/23 04:57:22;;;;;;;1.42;0.98;;;12.10;99.90;;;;;;4977450;28;20023;-68
2023/03/23 04:59:47;;;;;;;1.55;1.20;;;12.20;99.90;;;;;;4977427;28;20077;-68
2023/03/23 05:02:13;;;;;;;2.90;1.20;;;12.30;99.90;;;;;;4977674;28;20121;-68
2023/03/23 05:04:40;;;;;;;4.63;0.98;;;12.30;99.90;;;;;;4978106;28;20029;-68
2023/03/23 05:07:07;;;;;;;1.58;0.70;;;12.30;99.90;;;;;;4978054;28;20027;-68
2023/03/23 05:09:33;;;;;;;3.47;0.90;;;12.30;99.90;;;;;;4978152;28;20030;-68
2023/03/23 05:12:05;;;;;;;7.78;0.95;;;12.30;99.90;;;;;;4977313;28;20034;-68
2023/03/23 05:14:30;;;;;;;;;;;12.30;99.90;;;;;;4977750;28;20023;-68
2023/03/23 05:16:56;;;;;;;1.98;0.85;;;12.10;99.90;;;;;;4977968;28;19928;-68
2023/03/23 05:19:21;;;;;;;1.95;0.80;;;12.10;99.90;;;;;;4977573;28;20065;-68
2023/03/23 05:21:47;;;;;;;5.82;1.13;;;12.10;99.90;;;;;;4981223;28;20014;-68
2023/03/23 05:24:12;;;;;;;4.38;1.20;;;12.20;99.90;;;;;;4980923;28;20034;-68
2023/03/23 05:26:38;;;;;;;2.47;1.20;;;12.20;99.90;;;;;;4981463;28;20055;-68
2023/03/23 05:29:03;;;;;;;2.40;0.93;;;12.20;99.90;;;;;;4981886;28;20023;-68
2023/03/23 05:31:30;;;;;;;2.92;1.10;;;12.20;99.90;;;;;;4981580;28;20051;-68
2023/03/23 05:33:56;;;;;;;1.55;0.90;;;12.30;99.90;;;;;;4981407;28;20027;-68
2023/03/23 05:36:23;;;;;;;3.97;1.02;;;12.30;99.90;;;;;;4981062;28;20054;-68
2023/03/23 05:38:50;;;;;;;10.57;1.60;;;12.30;99.90;;;;;;4981060;28;20022;-68
2023/03/23 05:41:16;;;;;;;1.25;1.13;;;12.20;99.90;;;;;;4981170;28;20064;-68
2023/03/23 05:43:42;;;;;;;2.00;1.23;;;12.20;99.90;;;;;;4981746;28;20109;-68
2023/03/23 05:46:08;;;;;;;4.13;1.30;;;12.20;99.90;;;;;;4981568;28;20114;-68
2023/03/23 05:48:34;;;;;;;2.58;1.08;;;12.20;99.90;;;;;;4981631;28;20031;-68
2023/03/23 05:51:00;;;;;;;5.15;1.13;;;12.00;99.90;;;;;;4981596;28;20127;-68
2023/03/23 05:53:26;;;;;;;2.50;0.90;;;12.00;99.90;;;;;;4980429;28;20033;-68
2023/03/23 05:55:52;;;;;;;3.22;1.27;;;12.00;99.90;;;;;;4980719;28;20019;-68
2023/03/23 05:58:18;;;;;;;2.90;1.38;;;11.90;99.90;;;;;;4980623;28;20019;-68
2023/03/23 06:00:45;;;;;;;3.17;1.20;;;12.00;99.90;;;;;;4980426;28;20122;-68
2023/03/23 06:03:11;;;;;;;4.50;1.20;;;12.00;99.90;;;;;;4981233;28;20054;-68
2023/03/23 06:05:44;;;;;;;5.90;1.33;;;12.10;99.90;;;;;;4980337;28;20027;-68
2023/03/23 06:08:09;;;;;;;3.22;1.45;;;12.00;99.90;;;;;;4980540;28;20038;-68
2023/03/23 06:10:36;;;;;;;2.67;0.82;;;12.10;99.90;;;;;;4980356;28;20030;-68
2023/03/23 06:13:02;;;;;;;2.00;1.20;;;12.10;99.90;;;;;;4980782;28;20034;-68
2023/03/23 06:15:31;;;;;;;4.82;1.70;;;12.20;99.90;;;;;;4980352;28;20078;-68
2023/03/23 06:17:59;;;;;;;6.30;1.33;;;12.20;99.90;;;;;;4980994;28;20027;-68
2023/03/23 06:20:27;;;;;;;1.88;0.90;;;12.20;99.90;;;;;;4980457;28;20026;-68
2023/03/23 06:22:53;;;;;;;1.83;1.30;;;12.30;99.90;;;;;;5005927;23;20043;-69
2023/03/23 06:25:19;;;;;;;3.40;1.30;;;12.40;99.90;;;;;;4999778;28;20030;-67
2023/03/23 06:27:46;;;;;;;3.00;1.50;;;12.30;99.90;;;;;;4999536;28;20059;-67
2023/03/23 06:30:14;;;;;;;3.88;1.60;;;12.30;99.90;;;;;;4999043;28;20034;-67
2023/03/23 06:32:41;;;;;;;3.03;1.40;;;12.30;99.90;;;;;;4999152;28;20037;-68
2023/03/23 06:35:09;;;;;;;3.63;2.17;;;12.30;99.90;;;;;;4999287;28;20023;-68
2023/03/23 06:37:36;;;;;;;2.53;1.63;;;12.40;99.90;;;;;;4999197;28;20045;-68
2023/03/23 06:40:04;;;;;;;6.55;2.00;;;12.40;99.90;;;;;;5000174;28;20022;-67
2023/03/23 06:42:29;;;;;;;5.68;2.38;;;12.40;99.90;;;;;;4999553;28;20027;-68
2023/03/23 06:44:57;;;;;;;4.10;2.30;;;12.40;99.90;;;;;;4999655;28;20037;-68
2023/03/23 06:47:23;;;;;;;4.35;1.90;;;12.40;99.90;;;;;;4999861;28;20173;-68
2023/03/23 06:49:49;;;;;;;5.43;2.00;;;12.50;99.90;;;;;;4999933;28;20116;-68
2023/03/23 06:52:14;;;;;;;4.38;1.67;;;12.60;99.90;;;;;;4999195;28;20142;-68
2023/03/23 06:54:40;;;;;;;5.03;1.92;;;12.60;99.90;;;;;;4999238;28;20023;-68
2023/03/23 06:57:06;;;;;;;10.02;2.10;;;12.60;99.90;;;;;;5000054;28;20090;-68
2023/03/23 06:59:32;;;;;;;15.50;2.38;;;12.50;99.90;;;;;;4998970;28;20113;-68
2023/03/23 07:01:57;;;;;;;3.08;1.23;;;12.50;99.90;;;;;;4998899;28;20061;-68
2023/03/23 07:04:23;;;;;;;2.60;1.20;;;12.60;99.90;;;;;;4998722;28;20146;-68
2023/03/23 07:06:49;;;;;;;5.65;1.40;;;12.70;99.90;;;;;;4999027;28;20065;-68
2023/03/23 07:09:15;;;;;;;5.63;1.40;;;12.70;99.90;;;;;;4999630;28;20061;-69
2023/03/23 07:11:41;;;;;;;2.53;1.35;;;12.70;99.90;;;;;;4999854;28;20086;-68
2023/03/23 07:14:06;;;;;;;4.75;1.40;;;12.70;99.90;;;;;;4998512;28;20031;-69
2023/03/23 07:16:32;;;;;;;3.97;1.48;;;12.70;99.90;;;;;;4998961;28;20022;-69
2023/03/23 07:18:59;;;;;;;4.82;1.50;;;12.70;99.90;;;;;;4999503;28;20018;-69
2023/03/23 07:21:24;;;;;;;4.45;1.20;;;12.70;99.90;;;;;;4999620;28;20113;-69
2023/03/23 07:23:50;;;;;;;3.22;1.20;;;12.80;99.90;;;;;;4998477;28;20101;-69
2023/03/23 07:26:16;;;;;;;3.25;1.73;;;12.70;99.90;;;;;;4998382;28;20034;-69
2023/03/23 07:28:42;;;;;;;4.20;1.35;;;12.70;99.90;;;;;;4999437;28;20029;-68
2023/03/23 07:31:08;;;;;;;3.78;1.30;;;12.70;99.90;;;;;;4999460;28;20031;-69
2023/03/23 07:33:35;;;;;;;4.70;1.58;;;12.70;99.90;;;;;;4998207;28;20026;-69
2023/03/23 07:36:03;;;;;;;3.08;1.30;;;12.70;99.90;;;;;;4999653;28;20097;-69
2023/03/23 07:38:29;;;;;;;1.63;1.10;;;12.80;99.90;;;;;;4998176;28;20162;-69
2023/03/23 07:40:56;;;;;;;1.20;0.95;;;12.80;99.90;;;;;;4998240;28;20034;-68
2023/03/23 07:43:22;;;;;;;1.42;1.00;;;12.80;99.90;;;;;;4998008;28;20033;-69
2023/03/23 07:45:47;;;;;;;4.95;1.52;;;12.90;99.90;;;;;;4999031;28;20101;-68
2023/03/23 07:48:13;;;;;;;1.73;1.08;;;12.90;99.90;;;;;;4998062;28;20022;-68
2023/03/23 07:50:39;;;;;;;1.83;1.02;;;12.90;99.90;;;;;;4998013;28;20084;-68
2023/03/23 07:53:04;;;;;;;1.45;0.98;;;13.00;99.90;;;;;;4998143;28;20022;-68
2023/03/23 07:55:30;;;;;;;2.45;1.25;;;13.00;99.90;;;;;;4998320;28;20026;-68
2023/03/23 07:57:56;;;;;;;1.33;1.02;;;13.00;99.90;;;;;;4998404;28;20026;-69
2023/03/23 08:00:23;;;;;;;1.00;0.90;;;13.10;99.90;;;;;;4997974;28;20028;-69
2023/03/23 08:02:58;;;;;;;3.80;1.10;;;13.10;99.90;;;;;;4997615;28;20057;-70
2023/03/23 08:05:26;;;;;;;2.10;0.82;;;13.10;99.90;;;;;;4997983;28;20037;-69
2023/03/23 08:07:54;;;;;;;1.95;1.02;;;13.10;99.90;;;;;;4994482;28;20030;-70
2023/03/23 08:10:24;;;;;;;2.65;1.00;;;13.10;99.90;;;;;;4998588;28;20030;-70
2023/03/23 08:12:52;;;;;;;1.20;0.80;;;13.10;99.90;;;;;;4998477;28;20022;-69
2023/03/23 08:15:19;;;;;;;3.33;0.88;;;13.20;99.90;;;;;;4998530;28;20034;-69
2023/03/23 08:17:44;;;;;;;2.45;1.00;;;13.30;99.90;;;;;;4998323;28;20023;-69
2023/03/23 08:20:15;;;;;;;3.10;0.70;;;13.20;99.90;;;;;;4997418;28;20117;-69
2023/03/23 08:22:44;;;;;;;2.05;0.80;;;13.20;99.90;;;;;;4997418;28;20026;-69
2023/03/23 08:25:12;;;;;;;4.43;0.93;;;13.30;99.90;;;;;;4998528;28;20034;-69
2023/03/23 08:27:42;;;;;;;2.60;0.90;;;13.30;99.90;;;;;;4998527;28;20109;-70
2023/03/23 08:30:10;;;;;;;1.73;0.95;;;13.30;99.90;;;;;;4998203;28;20054;-68
2023/03/23 08:32:36;;;;;;;1.25;0.90;;;13.30;99.90;;;;;;4997004;28;20038;-68
2023/03/23 08:35:02;;;;;;;3.45;1.10;;;13.30;99.90;;;;;;4997635;28;20022;-68
2023/03/23 08:37:29;;;;;;;2.10;1.08;;;13.40;99.90;;;;;;4997071;28;20030;-68
2023/03/23 08:39:56;;;;;;;4.70;1.08;;;13.40;99.90;;;;;;4998370;28;20023;-69
2023/03/23 08:42:24;;;;;;;1.42;0.95;;;13.40;99.90;;;;;;4997004;28;20023;-69
2023/03/23 08:44:50;;;;;;;1.45;0.88;;;13.40;99.90;;;;;;4997289;28;20026;-69
2023/03/23 08:47:15;;;;;;;1.52;0.98;;;13.40;99.90;;;;;;4997135;28;20046;-70
2023/03/23 08:49:42;;;;;;;2.38;0.88;;;13.30;99.90;;;;;;4997046;28;20176;-69
2023/03/23 08:52:09;;;;;;;2.22;1.10;;;13.30;99.90;;;;;;4996895;28;20026;-71
2023/03/23 08:54:34;;;;;;;3.85;1.10;;;13.30;99.90;;;;;;4996941;28;20026;-68
2023/03/23 08:57:01;;;;;;;2.00;0.90;;;13.30;99.90;;;;;;4996848;28;20029;-69
2023/03/23 08:59:27;;;;;;;2.90;1.00;;;13.40;99.90;;;;;;4997339;28;20019;-70
2023/03/23 09:01:54;;;;;;;2.25;1.30;;;13.40;99.90;;;;;;4996944;28;20033;-69
2023/03/23 09:04:20;;;;;;;2.08;0.80;;;13.50;99.90;;;;;;4996957;28;20022;-69
2023/03/23 09:06:46;;;;;;;1.95;0.90;;;13.50;99.90;;;;;;4997529;28;20034;-69
2023/03/23 09:09:12;;;;;;;2.03;0.90;;;13.50;99.90;;;;;;4996658;28;20093;-69
2023/03/23 09:11:39;;;;;;;0.95;0.63;;;13.60;99.90;;;;;;4996992;28;20030;-70
2023/03/23 09:14:06;;;;;;;0.95;0.60;;;13.60;99.90;;;;;;4996692;28;20061;-65
2023/03/23 09:16:32;;;;;;;3.63;0.57;;;13.70;99.90;;;;;;4997012;28;20113;-65
2023/03/23 09:18:59;;;;;;;6.13;0.60;;;13.70;99.90;;;;;;4997624;28;20080;-65
2023/03/23 09:21:26;;;;;;;1.92;0.60;;;13.70;99.90;;;;;;4996887;28;20033;-65
2023/03/23 09:23:53;;;;;;;0.73;0.60;;;13.80;99.90;;;;;;4997039;28;20031;-66
2023/03/23 09:26:19;;;;;;;0.95;0.85;;;13.80;99.90;;;;;;4996696;28;20041;-66
2023/03/23 09:28:45;;;;;;;1.13;0.70;;;13.80;99.90;;;;;;4996986;28;20073;-65
2023/03/23 09:31:11;;;;;;;2.47;0.60;;;13.80;99.90;;;;;;4996885;28;20022;-66
2023/03/23 09:33:38;;;;;;;0.80;0.70;;;13.80;99.90;;;;;;4996561;28;20034;-68
2023/03/23 09:36:04;;;;;;;2.38;0.68;;;13.80;99.90;;;;;;4997148;28;20022;-67
2023/03/23 09:38:33;;;;;;;1.20;0.68;;;13.80;99.90;;;;;;4996831;28;20054;-66
2023/03/23 09:41:07;;;;;;;1.60;0.70;;;13.80;99.90;;;;;;4996821;28;20026;-66
2023/03/23 09:44:00;;;;;;;2.83;0.85;;;13.80;99.90;;;;;;4997065;28;20100;-66
2023/03/23 09:46:56;;;;;;;1.50;0.75;;;13.90;99.90;;;;;;4997269;28;20030;-66
2023/03/23 09:49:27;;;;;;;2.08;0.95;;;13.90;99.90;;;;;;4988603;28;20038;-66
2023/03/23 09:52:08;;;;;;;6.40;0.70;;;13.90;99.90;;;;;;4996279;28;20031;-66
2023/03/23 09:54:39;;;;;;;2.20;0.80;;;13.90;99.90;;;;;;4996679;28;20103;-66
2023/03/23 09:57:22;;;;;;;2.80;0.93;;;13.90;99.90;;;;;;4997078;28;20061;-65
2023/03/23 10:00:06;;;;;;;1.95;0.77;;;14.00;99.90;;;;;;4996675;28;20034;-65
2023/03/23 10:02:53;;;;;;;4.85;1.20;;;13.90;99.90;;;;;;4997015;28;20034;-65
2023/03/23 10:05:36;;;;;;;2.97;0.70;;;14.00;99.90;;;;;;4996369;28;20037;-65
2023/03/23 10:08:09;;;;;;;2.45;0.70;;;13.90;99.90;;;;;;5000773;28;20053;-65
2023/03/23 10:10:59;;;;;;;3.08;1.13;;;13.80;99.90;;;;;;5000762;28;20061;-65
2023/03/23 10:13:51;;;;;;;1.65;0.80;;;13.70;99.90;;;;;;4999813;28;20081;-65
2023/03/23 10:16:23;;;;;;;2.50;0.80;;;13.50;99.90;;;;;;5000817;28;20023;-65
2023/03/23 10:19:35;;;;;;;2.85;1.05;;;13.40;99.90;;;;;;5000629;28;20054;-65
2023/03/23 10:22:08;;;;;;;2.58;1.40;;;13.30;99.90;;;;;;4957355;28;20134;-65
2023/03/23 10:24:52;;;;;;;3.63;1.27;;;13.30;99.90;;;;;;4999635;28;20034;-65
2023/03/23 10:27:34;;;;;;;2.50;0.70;;;13.30;99.90;;;;;;4999945;28;20027;-65
2023/03/23 10:30:21;;;;;;;2.50;0.80;;;13.30;99.90;;;;;;5000377;28;20026;-65
2023/03/23 10:33:02;;;;;;;4.72;0.98;;;13.30;99.90;;;;;;4999568;28;20030;-65
2023/03/23 10:35:37;;;;;;;2.38;0.95;;;13.40;99.90;;;;;;4999667;28;20049;-65
2023/03/23 10:38:19;;;;;;;4.07;0.90;;;13.40;99.90;;;;;;4999482;28;20029;-65
2023/03/23 10:41:12;;;;;;;1.02;0.63;;;13.40;99.90;;;;;;5000118;28;20022;-65
2023/03/23 10:43:42;;;;;;;2.70;0.70;;;13.40;99.90;;;;;;4996586;28;20073;-65
2023/03/23 10:46:22;;;;;;;1.15;0.75;;;13.40;99.90;;;;;;5000032;28;20048;-64
2023/03/23 10:48:50;;;;;;;3.35;1.73;;;13.30;99.90;;;;;;4999915;28;20057;-64
2023/03/23 10:51:20;;;;;;;1.15;0.80;;;13.20;99.90;;;;;;4999074;28;20030;-65
2023/03/23 10:53:52;;;;;;;3.53;0.90;;;13.20;99.90;;;;;;4999532;28;20141;-65
2023/03/23 10:56:34;;;;;;;1.48;0.95;;;13.40;99.90;;;;;;4999937;28;20165;-65
2023/03/23 10:59:14;;;;;;;1.50;0.80;;;13.40;99.90;;;;;;4999461;28;20027;-65
2023/03/23 11:01:44;;;;;;;1.27;0.68;;;13.60;99.90;;;;;;5000002;28;20030;-67
2023/03/23 11:04:15;;;;;;;1.65;0.68;;;13.70;99.90;;;;;;4998711;28;20177;-65
2023/03/23 11:06:46;;;;;;;0.93;0.70;;;13.80;99.90;;;;;;4999113;28;20026;-65
2023/03/23 11:09:16;;;;;;;2.58;0.57;;;13.80;99.90;;;;;;4998825;28;20049;-65
2023/03/23 11:11:48;;;;;;;2.35;0.77;;;13.80;99.90;;;;;;4999217;28;20030;-65
2023/03/23 11:14:25;;;;;;;2.25;0.63;;;13.80;99.90;;;;;;4999190;28;20048;-65
2023/03/23 11:16:55;;;;;;;2.08;0.40;;;13.90;99.90;;;;;;4998828;28;20022;-65
2023/03/23 11:19:37;;;;;;;1.00;0.52;;;13.90;99.90;;;;;;4998980;28;20027;-65
2023/03/23 11:22:04;;;;;;;0.63;0.50;;;14.10;99.90;;;;;;4999245;28;20026;-69
2023/03/23 11:24:36;;;;;;;0.63;0.45;;;14.20;99.90;;;;;;4998577;28;20057;-70
2023/03/23 11:27:06;;;;;;;2.67;0.57;;;14.30;99.90;;;;;;4998586;28;20102;-69
2023/03/23 11:29:33;;;;;;;1.95;0.88;;;14.40;99.90;;;;;;4999161;28;20022;-69
2023/03/23 11:31:58;;;;;;;1.48;0.82;;;14.40;99.90;;;;;;4999065;28;20022;-66
2023/03/23 11:34:35;;;;;;;1.25;0.70;;;14.40;99.90;;;;;;4998671;28;20023;-66
2023/03/23 11:37:12;;;;;;;0.93;0.70;;;14.30;99.90;;;;;;4999135;28;20108;-65
2023/03/23 11:39:53;;;;;;;1.92;0.70;;;14.40;99.90;;;;;;4999261;28;20030;-65
2023/03/23 11:42:20;;;;;;;1.87;0.60;;;14.30;99.90;;;;;;4998711;28;20026;-65
2023/03/23 11:44:46;;;;;;;1.45;0.70;;;14.20;99.90;;;;;;4999029;28;20293;-65
2023/03/23 11:47:28;;;;;;;2.72;0.80;;;14.20;99.90;;;;;;4998273;28;20026;-65
2023/03/23 11:50:00;;;;;;;0.63;0.55;;;14.20;99.90;;;;;;4998399;28;20034;-65
2023/03/23 11:52:58;;;;;;;1.80;0.63;;;14.20;99.90;;;;;;4999057;28;20050;-65
2023/03/23 11:55:35;;;;;;;2.67;0.70;;;14.10;99.90;;;;;;4998370;28;20027;-65
2023/03/23 11:58:12;;;;;;;3.25;0.60;;;14.00;99.90;;;;;;4998448;28;20029;-65
2023/03/23 12:00:43;;;;;;;1.05;0.47;;;14.00;99.90;;;;;;4998631;28;20026;-66
2023/03/23 12:03:33;;;;;;;1.30;0.73;;;14.00;99.90;;;;;;4998559;28;20034;-65
2023/03/23 12:06:09;;;;;;;1.00;0.50;;;14.00;99.90;;;;;;4998794;28;20185;-65
2023/03/23 12:08:37;;;;;;;1.05;0.40;;;14.10;99.90;;;;;;4998604;28;20022;-65
2023/03/23 12:11:23;;;;;;;0.80;0.65;;;14.20;99.90;;;;;;4998087;28;20032;-65
2023/03/23 12:14:01;;;;;;;1.30;0.60;;;14.20;99.90;;;;;;4997724;28;20029;-65
2023/03/23 12:16:27;;;;;;;3.00;0.73;;;14.30;99.90;;;;;;4997606;28;20022;-65
2023/03/23 12:19:06;;;;;;;0.57;0.50;;;14.40;99.90;;;;;;4997750;28;20072;-66
2023/03/23 12:21:45;;;;;;;0.47;0.32;;;14.40;99.90;;;;;;4998209;28;20110;-65
2023/03/23 12:24:34;;;;;;;1.15;0.55;;;14.40;99.90;;;;;;5022654;22;20039;-65
2023/03/23 12:27:26;;;;;;;1.60;0.73;;;14.40;99.90;;;;;;4997778;28;20018;-65
2023/03/23 12:29:57;;;;;;;0.70;0.40;;;14.50;99.90;;;;;;4997724;28;20018;-65
2023/03/23 12:32:38;;;;;;;0.63;0.50;;;14.60;99.90;;;;;;4998008;28;20033;-65
2023/03/23 12:35:39;;;;;;;0.52;0.43;;;14.70;99.90;;;;;;4997589;28;20026;-65
2023/03/23 12:38:46;;;;;;;0.95;0.30;;;14.80;99.90;;;;;;4997136;28;20061;-65
2023/03/23 12:41:17;;;;;;;0.80;0.50;;;15.10;99.90;;;;;;4978264;28;20061;-66
2023/03/23 12:44:03;;;;;;;0.43;0.40;;;15.30;99.90;;;;;;4997951;28;20030;-66
2023/03/23 12:46:37;;;;;;;1.98;0.90;;;15.30;99.90;;;;;;4998050;28;20027;-66
2023/03/23 12:49:44;;;;;;;0.88;0.30;;;15.40;99.90;;;;;;4996932;28;20038;-65
2023/03/23 12:52:21;;;;;;;3.88;0.50;;;15.40;99.90;;;;;;4957552;29;20023;-65
2023/03/23 12:55:06;;;;;;;1.50;0.35;;;15.40;99.90;;;;;;4941515;29;20050;-65
2023/03/23 12:57:36;;;;;;;0.77;0.52;;;15.40;99.90;;;;;;4958155;29;20019;-65
2023/03/23 13:00:19;;;;;;;4.80;1.95;;;15.50;99.90;;;;;;4941735;29;20188;-65
2023/03/23 13:03:14;;;;;;;0.75;0.40;;;15.80;99.90;;;;;;4957532;29;20031;-65
2023/03/23 13:06:06;;;;;;;2.58;0.43;;;16.10;99.90;;;;;;4954003;29;20066;-65
2023/03/23 13:08:44;;;;;;;0.55;0.35;;;16.60;99.90;;;;;;4938395;29;20032;-66